createdAt,value
2019-04-20T00:00:43.155Z,10.90
2019-04-20T00:04:45.683Z,10.70
2019-04-20T00:08:57.876Z,10.80
2019-04-20T00:13:08.829Z,10.70
2019-04-20T00:17:03.603Z,10.70
2019-04-20T00:21:26.895Z,10.60
2019-04-20T00:26:02.287Z,10.60
2019-04-20T00:30:06.737Z,10.50
2019-04-20T00:34:09.225Z,10.50
2019-04-20T00:38:07.803Z,10.50
2019-04-20T00:42:14.945Z,10.40
2019-04-20T00:46:26.380Z,10.50
2019-04-20T00:50:40.370Z,10.60
2019-04-20T00:54:32.594Z,10.30
2019-04-20T00:58:52.340Z,10.10
2019-04-20T01:02:54.305Z,10.10
2019-04-20T01:07:13.739Z,10.10
2019-04-20T01:11:08.104Z,10.10
2019-04-20T01:15:25.573Z,10.00
2019-04-20T01:19:20.597Z,10.00
2019-04-20T01:23:37.557Z,9.80
2019-04-20T01:27:42.470Z,9.80
2019-04-20T01:31:56.058Z,9.70
2019-04-20T01:35:56.937Z,9.70
2019-04-20T01:39:56.764Z,9.50
2019-04-20T01:43:58.626Z,9.40
2019-04-20T01:48:04.775Z,9.40
2019-04-20T01:52:19.184Z,9.30
2019-04-20T01:56:31.609Z,9.40
2019-04-20T02:00:48.064Z,9.30
2019-04-20T02:04:59.482Z,9.00
2019-04-20T02:09:06.671Z,9.20
2019-04-20T02:13:10.755Z,9.00
2019-04-20T02:17:26.042Z,9.10
2019-04-20T02:21:38.637Z,9.00
2019-04-20T02:25:29.084Z,8.90
2019-04-20T02:30:03.789Z,8.90
2019-04-20T02:34:26.128Z,8.80
2019-04-20T02:38:56.433Z,8.80
2019-04-20T03:02:55.912Z,8.30
2019-04-20T03:07:07.960Z,8.30
2019-04-20T03:11:20.942Z,7.90
2019-04-20T03:15:29.570Z,8.10
2019-04-20T03:19:23.300Z,8.10
2019-04-20T03:23:45.214Z,8.00
2019-04-20T03:27:47.568Z,8.00
2019-04-20T03:32:27.912Z,7.90
2019-04-20T03:36:19.971Z,7.80
2019-04-20T03:40:10.040Z,7.80
2019-04-20T03:44:09.033Z,7.60
2019-04-20T03:48:26.585Z,7.40
2019-04-20T03:52:43.052Z,7.50
2019-04-20T03:57:23.591Z,7.30
2019-04-20T04:02:03.254Z,7.50
2019-04-20T04:05:54.754Z,7.50
2019-04-20T04:10:08.460Z,7.40
2019-04-20T04:13:52.649Z,7.40
2019-04-20T04:18:04.402Z,7.40
2019-04-20T04:22:18.058Z,7.30
2019-04-20T04:26:27.514Z,7.40
2019-04-20T04:30:35.310Z,7.40
2019-04-20T04:34:44.451Z,7.40
2019-04-20T04:38:57.171Z,7.20
2019-04-20T04:43:02.249Z,7.30
2019-04-20T04:46:54.680Z,7.40
2019-04-20T04:51:01.266Z,7.30
2019-04-20T04:55:13.397Z,7.30
2019-04-20T04:59:08.825Z,7.40
2019-04-20T05:03:37.565Z,7.50
2019-04-20T05:07:49.590Z,7.30
2019-04-20T05:11:42.821Z,7.30
2019-04-20T05:16:00.180Z,7.40
2019-04-20T05:20:16.265Z,7.40
2019-04-20T05:24:29.165Z,7.30
2019-04-20T05:28:30.583Z,7.40
2019-04-20T05:32:35.818Z,7.30
2019-04-20T05:36:53.076Z,7.40
2019-04-20T05:41:02.081Z,7.50
2019-04-20T05:45:07.547Z,7.80
2019-04-20T05:49:23.400Z,7.80
2019-04-20T05:53:26.993Z,8.00
2019-04-20T05:57:40.076Z,7.90
2019-04-20T06:01:44.016Z,7.70
2019-04-20T06:05:52.499Z,8.10
2019-04-20T06:09:55.256Z,8.30
2019-04-20T06:14:07.052Z,8.50
2019-04-20T06:18:34.818Z,8.40
2019-04-20T06:22:48.341Z,8.50
2019-04-20T06:27:00.590Z,8.50
2019-04-20T06:30:56.868Z,8.80
2019-04-20T06:35:18.943Z,8.90
2019-04-20T06:39:20.053Z,9.00
2019-04-20T06:43:25.412Z,9.10
2019-04-20T06:47:30.747Z,9.40
2019-04-20T06:51:42.131Z,9.70
2019-04-20T06:55:57.354Z,9.80
2019-04-20T07:00:03.233Z,10.30
2019-04-20T07:04:21.158Z,11.30
2019-04-20T07:08:27.697Z,11.80
2019-04-20T07:12:18.680Z,12.00
2019-04-20T07:16:30.604Z,11.60
2019-04-20T07:21:05.330Z,12.40
2019-04-20T07:25:16.084Z,13.60
2019-04-20T07:29:13.658Z,16.40
2019-04-20T07:33:17.246Z,18.20
2019-04-20T07:37:46.686Z,18.50
2019-04-20T07:41:42.991Z,19.30
2019-04-20T07:45:35.091Z,18.00
2019-04-20T07:49:43.081Z,18.60
2019-04-20T07:53:45.298Z,20.00
2019-04-20T07:57:55.104Z,19.10
2019-04-20T08:02:24.962Z,19.00
2019-04-20T08:06:18.092Z,19.70
2019-04-20T08:10:34.356Z,21.40
2019-04-20T08:14:51.613Z,23.70
2019-04-20T08:18:55.737Z,25.60
2019-04-20T08:23:02.967Z,25.90
2019-04-20T08:26:55.178Z,25.10
2019-04-20T08:31:29.194Z,24.40
2019-04-20T08:35:46.451Z,22.50
2019-04-20T08:39:51.044Z,22.00
2019-04-20T08:43:53.939Z,23.10
2019-04-20T08:48:09.938Z,25.30
2019-04-20T08:52:12.373Z,23.60
2019-04-20T08:56:05.841Z,24.50
2019-04-20T08:59:56.086Z,22.70
2019-04-20T09:04:11.252Z,22.80
2019-04-20T09:08:16.211Z,23.00
2019-04-20T09:12:34.537Z,23.10
2019-04-20T09:16:26.966Z,21.00
2019-04-20T09:20:38.358Z,23.50
2019-04-20T09:25:01.850Z,23.10
2019-04-20T09:29:12.653Z,22.60
2019-04-20T09:33:33.595Z,22.30
2019-04-20T09:37:53.164Z,22.40
2019-04-20T09:42:00.658Z,22.00
2019-04-20T09:46:00.039Z,22.20
2019-04-20T09:50:21.166Z,22.40
2019-04-20T09:54:25.679Z,22.40
2019-04-20T09:58:26.221Z,22.20
2019-04-20T10:02:25.882Z,22.60
2019-04-20T10:06:30.704Z,23.30
2019-04-20T10:10:41.604Z,23.30
2019-04-20T10:14:40.824Z,22.00
2019-04-20T10:18:50.733Z,24.20
2019-04-20T10:22:52.249Z,24.40
2019-04-20T10:26:56.849Z,24.70
2019-04-20T10:31:02.312Z,25.30
2019-04-20T10:35:08.606Z,24.10
2019-04-20T10:39:14.345Z,24.10
2019-04-20T10:43:19.802Z,25.50
2019-04-20T10:47:25.271Z,23.40
2019-04-20T10:51:31.491Z,25.50
2019-04-20T10:55:37.642Z,24.90
2019-04-20T10:59:43.722Z,24.90
2019-04-20T11:03:50.369Z,25.50
2019-04-20T11:07:55.167Z,25.80
2019-04-20T11:11:59.864Z,25.90
2019-04-20T11:16:04.679Z,23.90
2019-04-20T11:20:09.760Z,25.70
2019-04-20T11:24:14.603Z,25.30
2019-04-20T11:28:19.926Z,25.50
2019-04-20T11:32:26.148Z,24.30
2019-04-20T11:36:31.087Z,25.50
2019-04-20T11:40:37.000Z,26.30
2019-04-20T11:44:42.917Z,27.70
2019-04-20T11:48:47.778Z,24.80
2019-04-20T11:52:53.101Z,25.80
2019-04-20T11:56:59.504Z,25.00
2019-04-20T12:01:21.678Z,26.00
2019-04-20T12:05:33.384Z,24.80
2019-04-20T12:09:31.549Z,25.40
2019-04-20T12:13:36.645Z,23.70
2019-04-20T12:17:41.793Z,24.30
2019-04-20T12:21:47.495Z,24.60
2019-04-20T12:25:52.389Z,24.20
2019-04-20T12:29:57.549Z,26.10
2019-04-20T12:34:02.550Z,25.70
2019-04-20T12:38:07.411Z,26.00
2019-04-20T12:42:13.013Z,27.10
2019-04-20T12:46:19.828Z,26.10
2019-04-20T12:50:25.589Z,25.10
2019-04-20T12:54:32.368Z,25.30
2019-04-20T12:58:37.078Z,26.40
2019-04-20T13:02:43.162Z,25.90
2019-04-20T13:06:49.016Z,26.60
2019-04-20T13:11:02.550Z,27.20
2019-04-20T13:15:32.121Z,25.30
2019-04-20T13:19:37.528Z,25.40
2019-04-20T13:23:42.738Z,25.90
2019-04-20T13:27:47.508Z,25.80
2019-04-20T13:31:54.596Z,26.00
2019-04-20T13:35:58.779Z,26.90
2019-04-20T13:40:04.927Z,27.20
2019-04-20T13:44:09.732Z,26.60
2019-04-20T13:48:15.137Z,26.70
2019-04-20T13:52:20.602Z,28.40
2019-04-20T13:56:25.915Z,26.00
2019-04-20T14:00:43.283Z,27.00
2019-04-20T14:04:57.069Z,27.60
2019-04-20T14:09:03.355Z,26.00
2019-04-20T14:13:14.922Z,26.90
2019-04-20T14:17:17.018Z,26.30
2019-04-20T14:21:22.317Z,27.00
2019-04-20T14:25:27.309Z,27.40
2019-04-20T14:29:32.743Z,27.40
2019-04-20T14:33:39.023Z,25.80
2019-04-20T14:37:43.945Z,26.50
2019-04-20T14:41:48.689Z,24.60
2019-04-20T14:45:54.508Z,23.70
2019-04-20T14:50:01.655Z,24.00
2019-04-20T14:54:05.731Z,23.90
2019-04-20T14:58:29.551Z,23.30
2019-04-20T15:02:34.287Z,23.10
2019-04-20T15:06:39.982Z,22.90
2019-04-20T15:10:44.829Z,23.20
2019-04-20T15:14:50.368Z,22.90
2019-04-20T15:19:13.752Z,23.20
2019-04-20T15:23:26.039Z,22.90
2019-04-20T15:27:30.938Z,23.00
2019-04-20T15:31:36.425Z,22.60
2019-04-20T15:35:42.018Z,22.70
2019-04-20T15:39:47.405Z,22.50
2019-04-20T15:43:53.216Z,22.50
2019-04-20T15:47:59.540Z,22.60
2019-04-20T15:52:05.921Z,22.40
2019-04-20T15:56:11.768Z,22.50
2019-04-20T16:00:18.449Z,22.40
2019-04-20T16:04:43.133Z,22.50
2019-04-20T16:08:50.333Z,22.20
2019-04-20T16:13:07.354Z,22.00
2019-04-20T16:17:04.054Z,21.80
2019-04-20T16:21:14.268Z,21.50
2019-04-20T16:25:23.370Z,21.30
2019-04-20T16:29:29.397Z,21.20
2019-04-20T16:33:34.545Z,21.20
2019-04-20T16:37:40.288Z,20.90
2019-04-20T16:41:46.487Z,20.70
2019-04-20T16:45:51.169Z,20.40
2019-04-20T16:49:56.998Z,20.40
2019-04-20T16:54:02.139Z,20.20
2019-04-20T16:58:08.149Z,20.10
2019-04-20T17:02:15.956Z,19.90
2019-04-20T17:06:20.579Z,19.80
2019-04-20T17:10:26.486Z,19.70
2019-04-20T17:14:31.787Z,19.60
2019-04-20T17:18:37.408Z,19.60
2019-04-20T17:22:44.307Z,19.40
2019-04-20T17:26:59.170Z,19.30
2019-04-20T17:31:13.556Z,19.20
2019-04-20T17:35:33.802Z,18.90
2019-04-20T17:39:31.048Z,18.90
2019-04-20T17:43:56.963Z,18.80
2019-04-20T17:48:01.888Z,18.70
2019-04-20T17:52:21.517Z,18.60
2019-04-20T17:56:00.744Z,18.50
2019-04-20T18:00:15.693Z,18.30
2019-04-20T18:04:54.922Z,18.20
2019-04-20T18:08:52.203Z,18.10
2019-04-20T18:12:44.596Z,18.10
2019-04-20T18:17:11.408Z,17.90
2019-04-20T18:21:06.463Z,17.80
2019-04-20T18:25:29.714Z,17.70
2019-04-20T18:29:36.849Z,17.70
2019-04-20T18:33:30.179Z,17.50
2019-04-20T18:37:33.274Z,17.40
2019-04-20T18:41:45.494Z,17.30
2019-04-20T18:46:10.978Z,17.20
2019-04-20T18:50:05.072Z,17.00
2019-04-20T18:54:08.566Z,16.90
2019-04-20T18:58:09.130Z,16.80
2019-04-20T19:02:20.035Z,16.70
2019-04-20T19:06:21.264Z,16.50
2019-04-20T19:10:31.598Z,16.40
2019-04-20T19:14:51.741Z,16.30
2019-04-20T19:19:20.099Z,16.10
2019-04-20T19:23:14.757Z,16.00
2019-04-20T19:27:29.118Z,16.00
2019-04-20T19:31:43.236Z,16.10
2019-04-20T19:35:42.088Z,16.00
2019-04-20T19:39:53.197Z,15.90
2019-04-20T19:44:02.530Z,15.90
2019-04-20T19:48:09.396Z,15.80
2019-04-20T19:52:34.584Z,15.60
2019-04-20T19:56:26.118Z,15.50
2019-04-20T20:00:16.533Z,15.50
2019-04-20T20:04:21.882Z,15.40
2019-04-20T20:08:31.082Z,15.30
2019-04-20T20:12:35.673Z,15.30
2019-04-20T20:16:58.864Z,15.20
2019-04-20T20:21:04.790Z,15.10
2019-04-20T20:24:54.924Z,15.00
2019-04-20T20:29:08.183Z,14.90
2019-04-20T20:33:22.128Z,14.90
2019-04-20T20:37:24.080Z,14.80
2019-04-20T20:41:28.162Z,14.70
2019-04-20T20:45:35.036Z,14.60
2019-04-20T20:50:04.048Z,14.60
2019-04-20T20:53:54.633Z,14.50
2019-04-20T20:58:01.047Z,14.40
2019-04-20T21:02:06.852Z,14.30
2019-04-20T21:06:07.444Z,14.50
2019-04-20T21:10:15.285Z,14.40
2019-04-20T21:14:22.010Z,14.30
2019-04-20T21:18:43.518Z,14.30
2019-04-20T21:22:49.188Z,14.20
2019-04-20T21:26:42.345Z,14.10
2019-04-20T21:30:48.384Z,13.90
2019-04-20T21:34:55.675Z,13.90
2019-04-20T21:39:01.518Z,13.90
2019-04-20T21:43:09.479Z,13.80
2019-04-20T21:47:15.739Z,13.70
2019-04-20T21:51:32.759Z,13.60
2019-04-20T21:55:27.942Z,13.50
2019-04-20T21:59:40.970Z,13.70
2019-04-20T22:03:40.433Z,13.60
2019-04-20T22:07:46.426Z,13.50
2019-04-20T22:11:51.921Z,13.50
2019-04-20T22:16:04.740Z,13.40
2019-04-20T22:20:18.903Z,13.40
2019-04-20T22:24:28.710Z,13.30
2019-04-20T22:28:18.146Z,13.20
2019-04-20T22:32:23.951Z,13.20
2019-04-20T22:36:34.023Z,13.10
2019-04-20T22:40:36.706Z,13.20
2019-04-20T22:44:47.979Z,13.10
2019-04-20T22:49:06.885Z,13.00
2019-04-20T22:53:18.018Z,13.00
2019-04-20T22:57:22.681Z,12.90
2019-04-20T23:01:23.346Z,12.90
2019-04-20T23:05:18.553Z,12.80
2019-04-20T23:09:24.617Z,12.80
2019-04-20T23:13:37.800Z,12.70
2019-04-20T23:17:42.149Z,12.70
2019-04-20T23:21:48.697Z,12.60
2019-04-20T23:25:51.383Z,12.70
2019-04-20T23:29:58.364Z,12.60
2019-04-20T23:34:11.240Z,12.50
2019-04-20T23:38:16.085Z,12.50
2019-04-20T23:42:21.900Z,12.40
2019-04-20T23:46:43.671Z,12.40
2019-04-20T23:51:07.896Z,12.40
2019-04-20T23:55:00.951Z,12.30
2019-04-20T23:59:02.363Z,12.30
